PWSweather.com
Personal Weather Stations
Station Observations
REUBENS
Camas Prairie, Reubens, ID 83548

Camas PrairieReubens, ID 83548

Lat: 46.35417, Lon: -116.53167

Elevation: 3480

Station Type: Davis VantagePro 2

http://www.theobrienranch.com/wx/wx.htm

Latest ConditionsUpdated 1:30:00 PM PDT Monday, Sep 23, 2019
Currently Today's Max Today's Min Today's Average
Temperature 62.9°F17.2°C 62.9°F17.2°C 51.3°F10.7°C 54.4°F12.4°C
Dew Point 48.8°F9.3°C 53.5°F11.9°C 47.7°F8.7°C 51.0°F10.6°C
Winds 6.9 mph W11.1 kmh W 10.4 mph -16.7 kmh - - 3.0 mph 4.8 kmh
Wind Gusts 11.5 mph18.5 kmh 19.6 mph31.5 kmh - -
Humidity 60% 96% 60% 89%
Pressure 30.18 in1022.0 mb 30.21 in1023.0 mb 30.00 in1015.9 mb -
Precipitation - 0.07 in1.8 mm - -
Hour Temp Dew Point Humidity Winds Wind Gusts Pressure Precip Precip Rate Daily Precip Total
01:30 PM 62.9°F17.2°C 48.8°F9.3°C 60% 6.9 mph W11.1 kmh W 11.5 mph18.5 kmh 30.18 in1022.0 mb - 0.00 in0.0 mm 0.07 in1.8 mm
01:15 PM 61.3°F16.3°C 47.7°F8.7°C 61% 10.4 mph W16.7 kmh W 19.6 mph31.5 kmh 30.19 in1022.4 mb - 0.00 in0.0 mm 0.07 in1.8 mm
01:00 PM 61.3°F16.3°C 48.6°F9.2°C 63% 5.8 mph W9.3 kmh W 5.8 mph9.3 kmh 30.19 in1022.4 mb - 0.00 in0.0 mm 0.07 in1.8 mm
12:45 PM 60.9°F16.1°C 48.7°F9.3°C 64% 5.8 mph W9.3 kmh W 5.8 mph9.3 kmh 30.19 in1022.4 mb - 0.00 in0.0 mm 0.07 in1.8 mm
12:30 PM 60.6°F15.9°C 50.0°F10.0°C 68% 5.8 mph WSW9.3 kmh WSW 9.2 mph14.8 kmh 30.19 in1022.4 mb - 0.00 in0.0 mm 0.07 in1.8 mm
12:15 PM 60.5°F15.8°C 51.5°F10.8°C 72% 3.5 mph W5.6 kmh W 6.9 mph11.1 kmh 30.19 in1022.4 mb - 0.00 in0.0 mm 0.07 in1.8 mm
12:00 PM 61.4°F16.3°C 51.5°F10.8°C 70% 6.9 mph W11.1 kmh W 11.5 mph18.5 kmh 30.18 in1022.0 mb - 0.01 in0.3 mm 0.07 in1.8 mm
11:45 AM 61.4°F16.3°C 53.4°F11.9°C 75% 3.5 mph W5.6 kmh W 5.8 mph9.3 kmh 30.19 in1022.4 mb - 0.01 in0.3 mm 0.07 in1.8 mm
11:15 AM 60.7°F15.9°C 53.4°F11.9°C 77% 3.5 mph WNW5.6 kmh WNW 4.6 mph7.4 kmh 30.19 in1022.4 mb - 0.01 in0.3 mm 0.07 in1.8 mm
11:00 AM 58.9°F14.9°C 53.4°F11.9°C 82% 2.3 mph W3.7 kmh W 3.5 mph5.6 kmh 30.20 in1022.7 mb - 0.00 in0.0 mm 0.06 in1.5 mm
10:45 AM 57.4°F14.1°C 51.6°F10.9°C 81% 5.8 mph W9.3 kmh W 11.5 mph18.5 kmh 30.21 in1023.0 mb - 0.00 in0.0 mm 0.06 in1.5 mm
10:30 AM 57.8°F14.3°C 52.6°F11.4°C 83% 4.6 mph W7.4 kmh W 8.1 mph13.0 kmh 30.20 in1022.7 mb - 0.00 in0.0 mm 0.06 in1.5 mm
10:15 AM 56.8°F13.8°C 52.0°F11.1°C 84% 8.1 mph WSW13.0 kmh WSW 12.7 mph20.4 kmh 30.21 in1023.0 mb - 0.01 in0.3 mm 0.06 in1.5 mm
10:00 AM 57.2°F14.0°C 53.0°F11.7°C 86% 5.8 mph WSW9.3 kmh WSW 11.5 mph18.5 kmh 30.20 in1022.7 mb - 0.01 in0.3 mm 0.06 in1.5 mm
09:45 AM 57.3°F14.1°C 52.5°F11.4°C 84% 5.8 mph W9.3 kmh W 5.8 mph9.3 kmh 30.20 in1022.7 mb - 0.01 in0.3 mm 0.06 in1.5 mm
09:30 AM 56.7°F13.7°C 53.5°F11.9°C 89% 2.3 mph W3.7 kmh W 2.3 mph3.7 kmh 30.20 in1022.7 mb - 0.01 in0.3 mm 0.06 in1.5 mm
09:15 AM 54.6°F12.6°C 52.0°F11.1°C 91% 2.3 mph NW3.7 kmh NW 3.5 mph5.6 kmh 30.20 in1022.7 mb - 0.00 in0.0 mm 0.05 in1.3 mm
09:00 AM 54.1°F12.3°C 51.2°F10.7°C 90% 1.2 mph WSW1.9 kmh WSW 2.3 mph3.7 kmh 30.19 in1022.4 mb - 0.00 in0.0 mm 0.05 in1.3 mm
08:45 AM 54.2°F12.3°C 52.0°F11.1°C 92% 2.3 mph W3.7 kmh W 2.3 mph3.7 kmh 30.18 in1022.0 mb - 0.00 in0.0 mm 0.05 in1.3 mm
08:30 AM 53.9°F12.2°C 51.6°F10.9°C 92% 1.2 mph WSW1.9 kmh WSW 2.3 mph3.7 kmh 30.17 in1021.7 mb - 0.00 in0.0 mm 0.05 in1.3 mm
08:15 AM 54.0°F12.2°C 52.0°F11.1°C 93% 3.5 mph WSW5.6 kmh WSW 4.6 mph7.4 kmh 30.18 in1022.0 mb - 0.00 in0.0 mm 0.05 in1.3 mm
08:00 AM 52.8°F11.6°C 51.4°F10.8°C 95% 2.3 mph WSW3.7 kmh WSW 2.3 mph3.7 kmh 30.18 in1022.0 mb - 0.00 in0.0 mm 0.05 in1.3 mm
07:45 AM 52.2°F11.2°C 51.1°F10.6°C 96% 2.3 mph WSW3.7 kmh WSW 3.5 mph5.6 kmh 30.18 in1022.0 mb - 0.00 in0.0 mm 0.05 in1.3 mm
07:30 AM 52.0°F11.1°C 50.9°F10.5°C 96% Calm Calm -- 30.17 in1021.7 mb - 0.00 in0.0 mm 0.05 in1.3 mm
07:15 AM 51.8°F11.0°C 50.7°F10.4°C 96% 1.2 mph W1.9 kmh W 2.3 mph3.7 kmh 30.16 in1021.3 mb - 0.00 in0.0 mm 0.05 in1.3 mm
07:00 AM 51.6°F10.9°C 50.5°F10.3°C 96% Calm Calm -- 30.14 in1020.7 mb - 0.00 in0.0 mm 0.05 in1.3 mm
06:45 AM 51.6°F10.9°C 50.5°F10.3°C 96% Calm Calm -- 30.13 in1020.3 mb - 0.00 in0.0 mm 0.05 in1.3 mm
06:30 AM 51.6°F10.9°C 50.5°F10.3°C 96% Calm Calm -- 30.13 in1020.3 mb - 0.00 in0.0 mm 0.05 in1.3 mm
06:15 AM 51.5°F10.8°C 50.4°F10.2°C 96% Calm Calm -- 30.12 in1020.0 mb - 0.00 in0.0 mm 0.05 in1.3 mm
06:00 AM 51.4°F10.8°C 50.3°F10.2°C 96% Calm Calm -- 30.09 in1019.0 mb - 0.00 in0.0 mm 0.05 in1.3 mm
05:45 AM 51.3°F10.7°C 50.2°F10.1°C 96% 1.2 mph NW1.9 kmh NW 2.3 mph3.7 kmh 30.09 in1019.0 mb - 0.00 in0.0 mm 0.05 in1.3 mm
05:30 AM 51.3°F10.7°C 49.9°F9.9°C 95% 1.2 mph NW1.9 kmh NW 1.2 mph1.9 kmh 30.08 in1018.6 mb - 0.00 in0.0 mm 0.05 in1.3 mm
05:15 AM 51.5°F10.8°C 50.1°F10.1°C 95% Calm Calm 1.2 mph1.9 kmh 30.08 in1018.6 mb - 0.00 in0.0 mm 0.05 in1.3 mm
05:00 AM 51.7°F10.9°C 50.3°F10.2°C 95% 1.2 mph NW1.9 kmh NW 2.3 mph3.7 kmh 30.05 in1017.6 mb - 0.01 in0.3 mm 0.05 in1.3 mm
04:45 AM 52.1°F11.2°C 50.7°F10.4°C 95% 1.2 mph WSW1.9 kmh WSW 1.2 mph1.9 kmh 30.04 in1017.3 mb - 0.01 in0.3 mm 0.05 in1.3 mm
04:30 AM 52.3°F11.3°C 50.6°F10.3°C 94% 2.3 mph WSW3.7 kmh WSW 3.5 mph5.6 kmh 30.04 in1017.3 mb - 0.01 in0.3 mm 0.05 in1.3 mm
04:15 AM 52.3°F11.3°C 50.6°F10.3°C 94% 3.5 mph WSW5.6 kmh WSW 3.5 mph5.6 kmh 30.04 in1017.3 mb - 0.01 in0.3 mm 0.05 in1.3 mm
04:00 AM 52.0°F11.1°C 50.6°F10.3°C 95% Calm Calm -- 30.03 in1016.9 mb - 0.00 in0.0 mm 0.04 in1.0 mm
03:45 AM 52.0°F11.1°C 50.6°F10.3°C 95% 2.3 mph SW3.7 kmh SW 2.3 mph3.7 kmh 30.03 in1016.9 mb - 0.00 in0.0 mm 0.04 in1.0 mm
03:30 AM 52.1°F11.2°C 50.7°F10.4°C 95% 2.3 mph SW3.7 kmh SW 3.5 mph5.6 kmh 30.02 in1016.6 mb - 0.00 in0.0 mm 0.04 in1.0 mm
03:15 AM 52.1°F11.2°C 50.7°F10.4°C 95% 1.2 mph SSW1.9 kmh SSW 2.3 mph3.7 kmh 30.02 in1016.6 mb - 0.01 in0.3 mm 0.04 in1.0 mm
03:00 AM 52.1°F11.2°C 50.7°F10.4°C 95% 3.5 mph SW5.6 kmh SW 3.5 mph5.6 kmh 30.02 in1016.6 mb - 0.01 in0.3 mm 0.04 in1.0 mm
02:45 AM 52.1°F11.2°C 50.7°F10.4°C 95% 2.3 mph S3.7 kmh S 3.5 mph5.6 kmh 30.02 in1016.6 mb - 0.01 in0.3 mm 0.04 in1.0 mm
02:30 AM 52.1°F11.2°C 50.7°F10.4°C 95% 3.5 mph SSE5.6 kmh SSE 3.5 mph5.6 kmh 30.02 in1016.6 mb - 0.01 in0.3 mm 0.04 in1.0 mm
02:15 AM 52.2°F11.2°C 50.8°F10.4°C 95% 3.5 mph SSE5.6 kmh SSE 3.5 mph5.6 kmh 30.02 in1016.6 mb - 0.00 in0.0 mm 0.03 in0.8 mm
02:00 AM 52.2°F11.2°C 50.8°F10.4°C 95% 3.5 mph SSE5.6 kmh SSE 3.5 mph5.6 kmh 30.01 in1016.3 mb - 0.01 in0.3 mm 0.03 in0.8 mm
01:45 AM 52.1°F11.2°C 51.0°F10.6°C 96% 2.3 mph S3.7 kmh S 3.5 mph5.6 kmh 30.00 in1015.9 mb - 0.01 in0.3 mm 0.03 in0.8 mm
01:30 AM 52.2°F11.2°C 50.8°F10.4°C 95% 3.5 mph SSE5.6 kmh SSE 3.5 mph5.6 kmh 30.00 in1015.9 mb - 0.02 in0.5 mm 0.03 in0.8 mm
01:15 AM 52.3°F11.3°C 50.9°F10.5°C 95% 3.5 mph SE5.6 kmh SE 3.5 mph5.6 kmh 30.00 in1015.9 mb - 0.02 in0.5 mm 0.03 in0.8 mm
01:00 AM 52.4°F11.3°C 51.0°F10.6°C 95% 1.2 mph S1.9 kmh S 2.3 mph3.7 kmh 30.00 in1015.9 mb - 0.02 in0.5 mm 0.02 in0.5 mm
12:45 AM 52.2°F11.2°C 50.8°F10.4°C 95% 3.5 mph SSE5.6 kmh SSE 3.5 mph5.6 kmh 30.00 in1015.9 mb - 0.03 in0.8 mm 0.02 in0.5 mm
12:30 AM 52.1°F11.2°C 51.0°F10.6°C 96% 3.5 mph SSE5.6 kmh SSE 4.6 mph7.4 kmh 30.00 in1015.9 mb - 0.02 in0.5 mm 0.01 in0.3 mm
12:15 AM 51.9°F11.1°C 50.5°F10.3°C 95% 3.5 mph SSE5.6 kmh SSE 4.6 mph7.4 kmh 30.00 in1015.9 mb - 0.03 in0.8 mm 0.01 in0.3 mm
12:00 AM 51.9°F11.1°C 50.8°F10.4°C 96% 5.8 mph SE9.3 kmh SE 5.8 mph9.3 kmh 30.01 in1016.3 mb - 0.02 in0.5 mm 0.02 in0.5 mm